Time;durP1;ratioP1;P1;durP2;ratioP2;P2;SDS_P1;SDS_P2;PMS_P1;PMS_P2;Temp;Humidity;BMP_temperature;BMP_pressure;BME280_temperature;BME280_humidity;BME280_pressure;Samples;Min_cycle;Max_cycle;Signal;HPM_P1;HPM_P2
2022/04/21 00:01:36;;;;;;;;;;;;;;;8.13;82.65;100091.48;86008;1332;23038;-76
2022/04/21 00:03:40;;;;;;;;;;;;;;;8.10;82.67;100094.87;85985;1331;22446;-78
2022/04/21 00:05:45;;;;;;;;;;;;;;;8.07;82.73;100096.02;85961;1334;22479;-78
2022/04/21 00:07:49;;;;;;;;;;;;;;;8.02;82.86;100097.03;85947;1332;23291;-79
2022/04/21 00:09:57;;;;;;;;;;;;;;;7.99;83.05;100091.75;85998;1332;22572;-76
2022/04/21 00:12:06;;;;;;;;;;;;;;;7.97;83.11;100089.72;86005;1333;22509;-75
2022/04/21 00:14:13;;;;;;;;;;;;;;;7.96;83.33;100095.48;85822;1334;23207;-78
2022/04/21 00:16:18;;;;;;;;;;;;;;;7.96;83.37;100091.83;85929;1335;23266;-79
2022/04/21 00:18:26;;;;;;;;;;;;;;;7.98;83.65;100094.05;85943;1332;22521;-78
2022/04/21 00:20:30;;;;;;;;;;;;;;;7.99;83.52;100091.24;85948;1334;23095;-78
2022/04/21 00:25:00;;;;;;;;;;;;;;;8.05;83.81;100090.86;85814;1335;23169;-76
2022/04/21 00:27:05;;;;;;;;;;;;;;;8.08;83.78;100095.81;86003;1332;22511;-76
2022/04/21 00:29:13;;;;;;;;;;;;;;;8.11;83.68;100090.86;85894;1333;23168;-78
2022/04/21 00:31:18;;;;;;;;;;;;;;;8.14;83.65;100094.42;85924;1332;22478;-79
2022/04/21 00:33:23;;;;;;;;;;;;;;;8.17;83.81;100093.94;85988;1330;22443;-76
2022/04/21 00:35:28;;;;;;;;;;;;;;;8.18;83.66;100091.66;86005;1330;22631;-76
2022/04/21 00:37:33;;;;;;;;;;;;;;;8.17;83.71;100089.59;85995;1332;22488;-76
2022/04/21 00:39:40;;;;;;;;;;;;;;;8.19;83.89;100093.70;86011;1334;22445;-79
2022/04/21 00:41:45;;;;;;;;;;;;;;;8.22;83.73;100088.92;85910;1327;22628;-79
2022/04/21 00:43:49;;;;;;;;;;;;;;;8.20;83.75;100084.28;85808;1338;23194;-78
2022/04/21 00:45:56;;;;;;;;;;;;;;;8.20;83.81;100082.55;85987;1334;22597;-79
2022/04/21 00:48:02;;;;;;;;;;;;;;;8.20;83.78;100084.83;85972;1335;23167;-79
2022/04/21 00:50:10;;;;;;;;;;;;;;;8.18;83.77;100079.67;85992;1332;22542;-75
2022/04/21 00:52:15;;;;;;;;;;;;;;;8.18;83.79;100079.86;85971;1327;22585;-76
2022/04/21 00:54:20;;;;;;;;;;;;;;;8.17;83.87;100084.92;85985;1332;23060;-79
2022/04/21 00:56:25;;;;;;;;;;;;;;;8.15;83.91;100082.70;85951;1334;23080;-79
2022/04/21 00:58:30;;;;;;;;;;;;;;;8.13;83.91;100085.92;85802;1334;22538;-76
2022/04/21 01:00:34;;;;;;;;;;;;;;;8.10;83.92;100082.19;85966;1335;23265;-76
2022/04/21 01:02:52;;;;;;;;;;;;;;;8.08;84.01;100079.83;85984;1334;22627;-76
2022/04/21 01:05:00;;;;;;;;;;;;;;;8.06;84.10;100077.10;85974;1332;22502;-76
2022/04/21 01:07:08;;;;;;;;;;;;;;;8.05;84.16;100082.38;85966;1332;23179;-75
2022/04/21 01:09:12;;;;;;;;;;;;;;;8.03;84.15;100080.85;85963;1332;23130;-75
2022/04/21 01:11:21;;;;;;;;;;;;;;;8.04;84.26;100080.65;85977;1333;23198;-76
2022/04/21 01:13:26;;;;;;;;;;;;;;;8.05;84.33;100082.36;85989;1332;22577;-75
2022/04/21 01:15:33;;;;;;;;;;;;;;;8.07;84.36;100080.36;85960;1331;22461;-75
2022/04/21 01:17:38;;;;;;;;;;;;;;;8.08;84.48;100083.30;85972;1332;23188;-76
2022/04/21 01:19:43;;;;;;;;;;;;;;;8.11;84.45;100085.30;85966;1332;22467;-79
2022/04/21 01:21:50;;;;;;;;;;;;;;;8.15;84.43;100088.30;85959;1332;22553;-77
2022/04/21 01:23:55;;;;;;;;;;;;;;;8.19;84.51;100090.41;85965;1332;23000;-76
2022/04/21 01:26:01;;;;;;;;;;;;;;;8.23;84.62;100088.19;85958;1335;22545;-76
2022/04/21 01:28:06;;;;;;;;;;;;;;;8.28;84.58;100084.20;85880;1336;23240;-76
2022/04/21 01:30:14;;;;;;;;;;;;;;;8.28;84.52;100081.95;85817;1335;23135;-79
2022/04/21 01:32:19;;;;;;;;;;;;;;;8.30;84.67;100081.88;85894;1332;23149;-79
2022/04/21 01:34:23;;;;;;;;;;;;;;;8.30;84.51;100081.19;85902;1330;22455;-76
2022/04/21 01:36:28;;;;;;;;;;;;;;;8.30;84.61;100074.23;85893;1336;22447;-76
2022/04/21 01:41:11;;;;;;;;;;;;;;;8.30;84.63;100067.97;85972;1332;22473;-78
2022/04/21 01:43:16;;;;;;;;;;;;;;;8.30;84.69;100064.17;85864;1332;23170;-78
2022/04/21 01:45:21;;;;;;;;;;;;;;;8.28;84.61;100058.14;85969;1334;22488;-76
2022/04/21 01:47:25;;;;;;;;;;;;;;;8.26;84.66;100053.52;85876;1332;23306;-75
2022/04/21 01:49:30;;;;;;;;;;;;;;;8.23;84.86;100055.52;85970;1327;22535;-76
2022/04/21 01:51:38;;;;;;;;;;;;;;;8.22;84.91;100056.41;85913;1332;22424;-76
2022/04/21 01:53:42;;;;;;;;;;;;;;;8.19;84.91;100055.14;85886;1333;23380;-76
2022/04/21 01:55:47;;;;;;;;;;;;;;;8.16;85.04;100056.44;85964;1332;23092;-76
2022/04/21 01:57:52;;;;;;;;;;;;;;;8.15;85.04;100058.07;85963;1333;22450;-76
2022/04/21 01:59:56;;;;;;;;;;;;;;;8.13;85.11;100057.08;85966;1334;22445;-76
2022/04/21 02:02:01;;;;;;;;;;;;;;;8.12;85.13;100057.97;85956;1335;22616;-76
2022/04/21 02:04:09;;;;;;;;;;;;;;;8.09;85.35;100054.80;85957;1331;23089;-78
2022/04/21 02:06:16;;;;;;;;;;;;;;;8.06;85.38;100052.95;85956;1335;22482;-78
2022/04/21 02:08:21;;;;;;;;;;;;;;;8.05;85.40;100052.65;85976;1334;23177;-79
2022/04/21 02:10:25;;;;;;;;;;;;;;;8.02;85.60;100050.12;85978;1333;22558;-79
2022/04/21 02:12:30;;;;;;;;;;;;;;;8.01;85.71;100046.88;85786;1336;23144;-79
2022/04/21 02:14:38;;;;;;;;;;;;;;;8.00;85.72;100043.09;85968;1332;22447;-78
2022/04/21 02:16:42;;;;;;;;;;;;;;;8.02;85.83;100043.70;85877;1332;23327;-79
2022/04/21 02:18:51;;;;;;;;;;;;;;;8.05;85.77;100040.84;85968;1334;22628;-79
2022/04/21 02:20:58;;;;;;;;;;;;;;;8.08;85.84;100038.67;85894;1335;23006;-79
2022/04/21 02:23:06;;;;;;;;;;;;;;;8.12;86.08;100037.13;85975;1332;22588;-79
2022/04/21 02:25:16;;;;;;;;;;;;;;;8.15;85.93;100034.95;85974;1332;22617;-76
2022/04/21 02:27:24;;;;;;;;;;;;;;;8.18;85.99;100033.63;85965;1332;22690;-76
2022/04/21 02:29:31;;;;;;;;;;;;;;;8.21;85.92;100028.48;85981;1333;22520;-76
2022/04/21 02:31:36;;;;;;;;;;;;;;;8.25;85.90;100025.73;85966;1335;23222;-76
2022/04/21 02:33:43;;;;;;;;;;;;;;;8.30;85.79;100023.67;85964;1332;22531;-76
2022/04/21 02:35:47;;;;;;;;;;;;;;;8.32;85.85;100023.78;85991;1332;23193;-76
2022/04/21 02:37:56;;;;;;;;;;;;;;;8.36;85.92;100024.69;85776;1335;22529;-76
2022/04/21 02:40:01;;;;;;;;;;;;;;;8.39;85.82;100023.57;85816;1334;23123;-79
2022/04/21 02:42:07;;;;;;;;;;;;;;;8.40;85.69;100025.98;85887;1332;23027;-78
2022/04/21 02:44:11;;;;;;;;;;;;;;;8.37;85.57;100022.75;85895;1332;23294;-79
2022/04/21 02:46:16;;;;;;;;;;;;;;;8.38;85.56;100025.34;85877;1332;23083;-79
2022/04/21 02:48:20;;;;;;;;;;;;;;;8.37;85.56;100020.30;85895;1336;22656;-75
2022/04/21 02:50:25;;;;;;;;;;;;;;;8.36;85.64;100021.74;85903;1332;22495;-75
2022/04/21 02:52:30;;;;;;;;;;;;;;;8.34;85.46;100019.89;85906;1333;22502;-75
2022/04/21 02:59:22;;;;;;;;;;;;;;;8.30;85.51;100023.52;85973;1327;22441;-75
2022/04/21 03:01:27;;;;;;;;;;;;;;;8.26;85.44;100021.87;85949;1332;23064;-75
2022/04/21 03:03:32;;;;;;;;;;;;;;;8.24;85.38;100019.52;85895;1332;22449;-79
2022/04/21 03:05:36;;;;;;;;;;;;;;;8.21;85.51;100021.34;85962;1332;23205;-79
2022/04/21 03:07:41;;;;;;;;;;;;;;;8.20;85.55;100019.81;85971;1334;23225;-80
2022/04/21 03:09:46;;;;;;;;;;;;;;;8.18;85.68;100015.56;85947;1332;23493;-75
2022/04/21 03:11:50;;;;;;;;;;;;;;;8.14;85.78;100019.36;85970;1332;22525;-74
2022/04/21 03:13:55;;;;;;;;;;;;;;;8.12;85.84;100017.33;85976;1333;22462;-80
2022/04/21 03:16:00;;;;;;;;;;;;;;;8.11;85.99;100023.42;85967;1332;23012;-79
2022/04/21 03:18:07;;;;;;;;;;;;;;;8.10;86.08;100023.64;85974;1335;22547;-79
2022/04/21 03:24:18;;;;;;;;;;;;;;;8.12;86.10;100025.33;85973;1332;23162;-80
2022/04/21 03:25:03;;;;;;;;;;;;;;;8.15;86.03;100026.27;85970;1332;22469;-80
2022/04/21 03:27:07;;;;;;;;;;;;;;;8.17;86.38;100029.83;85955;1335;22705;-80
2022/04/21 03:29:12;;;;;;;;;;;;;;;8.20;86.34;100029.04;85971;1335;23258;-76
2022/04/21 03:31:17;;;;;;;;;;;;;;;8.22;86.32;100025.13;85959;1335;22464;-76
2022/04/21 03:33:23;;;;;;;;;;;;;;;8.24;86.34;100029.93;85967;1332;23143;-76
2022/04/21 03:35:28;;;;;;;;;;;;;;;8.28;86.25;100027.04;85966;1334;23134;-76
2022/04/21 03:37:33;;;;;;;;;;;;;;;8.31;86.30;100028.84;85961;1332;22489;-75
2022/04/21 03:39:38;;;;;;;;;;;;;;;8.35;86.22;100029.60;85964;1329;23051;-79
2022/04/21 03:41:45;;;;;;;;;;;;;;;8.38;86.30;100027.92;85956;1332;22457;-78
2022/04/21 03:43:50;;;;;;;;;;;;;;;8.42;86.18;100028.31;85889;1336;23245;-75
2022/04/21 03:45:57;;;;;;;;;;;;;;;8.44;86.02;100024.61;85978;1332;23124;-75
2022/04/21 03:48:06;;;;;;;;;;;;;;;8.44;85.92;100024.58;85965;1332;22470;-75
2022/04/21 03:50:10;;;;;;;;;;;;;;;8.45;85.91;100027.33;85976;1334;23181;-75
2022/04/21 03:52:17;;;;;;;;;;;;;;;8.47;85.92;100024.30;85977;1332;23628;-75
2022/04/21 03:54:22;;;;;;;;;;;;;;;8.49;85.77;100026.67;85956;1335;22565;-79
2022/04/21 03:56:27;;;;;;;;;;;;;;;8.49;85.73;100025.27;85956;1332;23036;-79
2022/04/21 03:58:33;;;;;;;;;;;;;;;8.50;85.80;100026.80;85969;1332;22518;-78
2022/04/21 04:00:37;;;;;;;;;;;;;;;8.50;85.64;100026.81;85973;1332;22476;-79
2022/04/21 04:02:45;;;;;;;;;;;;;;;8.50;85.69;100027.70;85966;1332;23024;-79
2022/04/21 04:04:49;;;;;;;;;;;;;;;8.49;85.72;100029.27;85887;1336;22508;-78
2022/04/21 04:11:39;;;;;;;;;;;;;;;8.47;85.75;100032.31;85977;1335;23088;-75
2022/04/21 04:13:44;;;;;;;;;;;;;;;8.44;85.58;100030.31;85974;1332;22636;-75
2022/04/21 04:15:51;;;;;;;;;;;;;;;8.42;85.59;100027.79;85875;1333;23303;-75
2022/04/21 04:17:59;;;;;;;;;;;;;;;8.39;85.68;100029.14;85797;1335;22446;-75
2022/04/21 04:20:04;;;;;;;;;;;;;;;8.36;85.65;100026.60;85893;1336;23075;-75
2022/04/21 04:22:14;;;;;;;;;;;;;;;8.37;85.74;100028.66;85787;1335;23301;-75
2022/04/21 04:24:19;;;;;;;;;;;;;;;8.37;85.64;100029.70;85973;1332;23212;-75
2022/04/21 04:26:23;;;;;;;;;;;;;;;8.36;85.62;100030.06;85973;1332;23607;-75
2022/04/21 04:28:28;;;;;;;;;;;;;;;8.35;85.56;100033.40;85876;1332;22643;-75
2022/04/21 04:30:33;;;;;;;;;;;;;;;8.34;85.60;100038.46;85958;1333;23176;-75
2022/04/21 04:32:37;;;;;;;;;;;;;;;8.33;85.70;100039.04;85885;1334;22468;-74
2022/04/21 04:34:42;;;;;;;;;;;;;;;8.31;85.67;100046.75;85991;1327;22522;-80
2022/04/21 04:36:46;;;;;;;;;;;;;;;8.30;85.78;100051.47;85889;1335;23155;-79
2022/04/21 04:38:51;;;;;;;;;;;;;;;8.30;85.85;100051.66;85965;1327;22564;-75
2022/04/21 04:42:16;;;;;;;;;;;;;;;8.31;85.84;100048.65;85891;1334;22453;-75
2022/04/21 04:43:23;;;;;;;;;;;;;;;8.33;85.86;100054.70;85977;1332;23196;-75
2022/04/21 04:47:54;;;;;;;;;;;;;;;8.40;85.86;100060.02;85976;1332;22515;-75
2022/04/21 04:50:01;;;;;;;;;;;;;;;8.44;86.00;100056.92;85977;1335;22942;-79
2022/04/21 04:52:06;;;;;;;;;;;;;;;8.47;85.81;100058.04;85975;1335;23176;-80
2022/04/21 04:54:11;;;;;;;;;;;;;;;8.51;85.76;100058.08;85979;1333;22502;-80
2022/04/21 04:56:18;;;;;;;;;;;;;;;8.55;85.68;100054.64;85972;1335;23019;-80
2022/04/21 04:58:23;;;;;;;;;;;;;;;8.58;85.54;100056.98;85985;1332;22488;-75
2022/04/21 05:00:29;;;;;;;;;;;;;;;8.62;85.66;100053.89;85952;1331;23094;-75
2022/04/21 05:02:34;;;;;;;;;;;;;;;8.67;85.62;100055.95;83624;1335;3255050;-75
2022/04/21 05:04:38;;;;;;;;;;;;;;;8.74;85.59;100056.77;85985;1333;22599;-81
2022/04/21 05:06:45;;;;;;;;;;;;;;;8.78;85.32;100061.29;85962;1331;22696;-81
2022/04/21 05:08:52;;;;;;;;;;;;;;;8.81;85.20;100061.39;85961;1335;22605;-75
2022/04/21 05:10:57;;;;;;;;;;;;;;;8.81;85.19;100056.49;85961;1335;22489;-75
2022/04/21 05:13:02;;;;;;;;;;;;;;;8.83;85.17;100061.66;85966;1332;23189;-75
2022/04/21 05:15:09;;;;;;;;;;;;;;;8.83;84.98;100063.92;85965;1331;23054;-80
2022/04/21 05:17:13;;;;;;;;;;;;;;;8.80;84.73;100062.96;85981;1334;23082;-80
2022/04/21 05:19:19;;;;;;;;;;;;;;;8.77;84.72;100065.67;85972;1334;23026;-75
2022/04/21 05:21:25;;;;;;;;;;;;;;;8.74;84.77;100065.43;85957;1335;23285;-75
2022/04/21 05:23:30;;;;;;;;;;;;;;;8.74;84.90;100061.63;85962;1335;23131;-80
2022/04/21 05:25:37;;;;;;;;;;;;;;;8.72;84.86;100063.24;85975;1332;22476;-80
2022/04/21 05:27:42;;;;;;;;;;;;;;;8.71;84.77;100066.77;85976;1332;23185;-79
2022/04/21 05:32:12;;;;;;;;;;;;;;;8.67;84.72;100066.39;85897;1333;23133;-80
2022/04/21 05:34:18;;;;;;;;;;;;;;;8.67;84.75;100069.00;85985;1335;22667;-80
2022/04/21 05:36:23;;;;;;;;;;;;;;;8.65;84.77;100065.23;85970;1333;23165;-81
2022/04/21 05:38:29;;;;;;;;;;;;;;;8.63;84.77;100068.28;85988;1335;23304;-74
2022/04/21 05:40:37;;;;;;;;;;;;;;;8.62;84.81;100069.88;85979;1335;22509;-74
2022/04/21 05:42:45;;;;;;;;;;;;;;;8.61;84.97;100070.76;85803;1334;23032;-74
2022/04/21 05:44:50;;;;;;;;;;;;;;;8.61;84.96;100069.20;85978;1335;23070;-79
2022/04/21 05:46:56;;;;;;;;;;;;;;;8.60;85.01;100076.02;85975;1335;23086;-80
2022/04/21 05:49:02;;;;;;;;;;;;;;;8.60;84.98;100072.02;85977;1335;23116;-81
2022/04/21 05:51:11;;;;;;;;;;;;;;;8.61;85.16;100071.48;85965;1332;22577;-81
2022/04/21 05:53:22;;;;;;;;;;;;;;;8.61;85.03;100070.77;85977;1332;22599;-80
2022/04/21 05:55:28;;;;;;;;;;;;;;;8.62;85.02;100073.89;85974;1331;23152;-73
2022/04/21 05:57:35;;;;;;;;;;;;;;;8.63;84.93;100071.60;85944;1332;22493;-75
2022/04/21 05:59:39;;;;;;;;;;;;;;;8.65;85.05;100072.20;85968;1335;23008;-74
2022/04/21 06:01:47;;;;;;;;;;;;;;;8.68;85.09;100071.23;85959;1335;22576;-75
2022/04/21 06:03:52;;;;;;;;;;;;;;;8.73;85.23;100076.45;85963;1331;22482;-74
2022/04/21 06:05:56;;;;;;;;;;;;;;;8.76;85.12;100076.86;85969;1335;23156;-75
2022/04/21 06:08:02;;;;;;;;;;;;;;;8.81;85.11;100074.44;85956;1335;23139;-74
2022/04/21 06:10:08;;;;;;;;;;;;;;;8.85;85.13;100075.15;85979;1331;23122;-80
2022/04/21 06:12:13;;;;;;;;;;;;;;;8.91;85.20;100075.29;85886;1335;22451;-80
2022/04/21 06:14:21;;;;;;;;;;;;;;;8.98;85.22;100074.19;85976;1332;22763;-81
2022/04/21 06:16:26;;;;;;;;;;;;;;;9.02;84.98;100069.50;85966;1335;22556;-81
2022/04/21 06:18:31;;;;;;;;;;;;;;;9.07;85.14;100069.66;85797;1337;22521;-80
2022/04/21 06:20:36;;;;;;;;;;;;;;;9.08;84.90;100071.02;85897;1335;22462;-81
2022/04/21 06:22:44;;;;;;;;;;;;;;;9.13;84.98;100070.85;85888;1331;22474;-81
2022/04/21 06:24:49;;;;;;;;;;;;;;;9.19;85.00;100075.83;85982;1329;22520;-80
2022/04/21 06:26:53;;;;;;;;;;;;;;;9.24;84.98;100073.89;85889;1336;23334;-81
2022/04/21 06:29:02;;;;;;;;;;;;;;;9.29;84.83;100075.61;85783;1337;22518;-81
2022/04/21 06:31:09;;;;;;;;;;;;;;;9.33;84.86;100075.17;85889;1335;23201;-81
2022/04/21 06:33:17;;;;;;;;;;;;;;;9.36;84.89;100075.19;85977;1335;22775;-79
2022/04/21 06:35:24;;;;;;;;;;;;;;;9.40;84.76;100077.66;85976;1335;23199;-75
2022/04/21 06:37:32;;;;;;;;;;;;;;;9.42;84.63;100078.44;85962;1334;23157;-75
2022/04/21 06:39:37;;;;;;;;;;;;;;;9.42;84.53;100080.55;85967;1335;22458;-75
2022/04/21 06:41:45;;;;;;;;;;;;;;;9.39;84.26;100081.33;85965;1329;22544;-75
2022/04/21 06:48:37;;;;;;;;;;;;;;;9.32;84.36;100076.41;85628;1334;22527;-75
2022/04/21 06:50:41;;;;;;;;;;;;;;;9.30;84.37;100075.73;85893;1336;23199;-75
2022/04/21 06:52:46;;;;;;;;;;;;;;;9.29;84.36;100073.89;85972;1334;23347;-75
2022/04/21 06:54:50;;;;;;;;;;;;;;;9.27;84.35;100074.30;85888;1336;23061;-80
2022/04/21 06:56:55;;;;;;;;;;;;;;;9.25;84.31;100074.54;85875;1336;22533;-81
2022/04/21 06:58:59;;;;;;;;;;;;;;;9.24;84.41;100075.09;85958;1335;22480;-80
2022/04/21 07:01:04;;;;;;;;;;;;;;;9.25;84.57;100078.71;85964;1335;22634;-80
2022/04/21 07:03:12;;;;;;;;;;;;;;;9.30;84.71;100077.34;85959;1334;22481;-80
2022/04/21 07:05:19;;;;;;;;;;;;;;;9.37;84.89;100080.38;85980;1335;23214;-75
2022/04/21 07:07:30;;;;;;;;;;;;;;;9.44;85.14;100082.88;85975;1331;22516;-75
2022/04/21 07:09:35;;;;;;;;;;;;;;;9.54;85.11;100084.10;85808;1337;23143;-81
2022/04/21 07:11:40;;;;;;;;;;;;;;;9.60;84.81;100084.54;85973;1335;22495;-81
2022/04/21 07:13:47;;;;;;;;;;;;;;;9.68;84.97;100082.15;85900;1334;22485;-81
2022/04/21 07:15:54;;;;;;;;;;;;;;;9.78;84.90;100084.19;85782;1337;23395;-80
2022/04/21 07:17:58;;;;;;;;;;;;;;;9.85;84.37;100080.60;85896;1336;22643;-81
2022/04/21 07:20:05;;;;;;;;;;;;;;;9.90;84.39;100081.11;85886;1336;23232;-74
2022/04/21 07:22:10;;;;;;;;;;;;;;;9.96;84.22;100080.34;85888;1333;23280;-75
2022/04/21 07:24:17;;;;;;;;;;;;;;;10.01;84.02;100081.19;85963;1335;22613;-81
2022/04/21 07:26:22;;;;;;;;;;;;;;;10.07;84.08;100086.00;85967;1335;22679;-81
2022/04/21 07:28:32;;;;;;;;;;;;;;;10.10;83.92;100087.09;85875;1336;22544;-80
2022/04/21 07:30:41;;;;;;;;;;;;;;;10.13;83.74;100090.45;85970;1335;23079;-80
2022/04/21 07:32:46;;;;;;;;;;;;;;;10.12;83.47;100088.25;85893;1333;22455;-81
2022/04/21 07:34:50;;;;;;;;;;;;;;;10.10;83.20;100091.10;85970;1335;22713;-80
2022/04/21 07:36:55;;;;;;;;;;;;;;;10.08;83.14;100091.67;85706;1338;22518;-80
2022/04/21 07:39:03;;;;;;;;;;;;;;;10.09;83.25;100095.14;85981;1335;22620;-80
2022/04/21 07:41:10;;;;;;;;;;;;;;;10.05;83.07;100091.66;85973;1335;22601;-81
2022/04/21 07:43:18;;;;;;;;;;;;;;;10.00;82.95;100094.45;85978;1335;22498;-78
2022/04/21 07:45:27;;;;;;;;;;;;;;;9.99;83.23;100091.55;85972;1335;22435;-81
2022/04/21 07:47:32;;;;;;;;;;;;;;;10.01;83.27;100092.86;85974;1334;23171;-81
2022/04/21 07:49:45;;;;;;;;;;;;;;;10.05;83.56;100087.82;85951;1334;22435;-75
2022/04/21 07:51:50;;;;;;;;;;;;;;;10.10;83.72;100088.67;85968;1333;23032;-75
2022/04/21 07:53:55;;;;;;;;;;;;;;;10.14;83.66;100088.16;85970;1332;23170;-81
2022/04/21 07:55:59;;;;;;;;;;;;;;;10.18;83.67;100090.45;85972;1335;23079;-81
2022/04/21 07:58:05;;;;;;;;;;;;;;;10.23;83.63;100095.10;85963;1335;22528;-80
2022/04/21 08:00:11;;;;;;;;;;;;;;;10.29;83.57;100098.56;85971;1335;22468;-81
2022/04/21 08:02:19;;;;;;;;;;;;;;;10.34;83.31;100094.49;85795;1334;22620;-79
2022/04/21 08:04:24;;;;;;;;;;;;;;;10.43;83.39;100093.98;85977;1335;23186;-80
2022/04/21 08:06:29;;;;;;;;;;;;;;;10.50;83.45;100093.48;85961;1335;23232;-80
2022/04/21 08:08:33;;;;;;;;;;;;;;;10.60;83.45;100089.40;85970;1335;23061;-80
2022/04/21 08:10:40;;;;;;;;;;;;;;;10.70;82.89;100090.74;85967;1335;22573;-80
2022/04/21 08:12:49;;;;;;;;;;;;;;;10.76;82.88;100089.59;85954;1335;22476;-80
2022/04/21 08:14:54;;;;;;;;;;;;;;;10.87;82.91;100088.09;85976;1335;22540;-75
2022/04/21 08:16:59;;;;;;;;;;;;;;;10.97;82.86;100089.04;85780;1338;23189;-75
2022/04/21 08:19:09;;;;;;;;;;;;;;;11.06;83.04;100085.31;85894;1336;22511;-79
2022/04/21 08:21:13;;;;;;;;;;;;;;;11.17;83.03;100083.61;85880;1336;22596;-79
2022/04/21 08:23:18;;;;;;;;;;;;;;;11.26;82.66;100082.66;85895;1332;23204;-78
2022/04/21 08:32:34;;;;;;;;;;;;;;;11.69;82.25;100074.02;85896;1336;22496;-76
2022/04/21 08:34:38;;;;;;;;;;;;;;;11.80;81.60;100075.27;85884;1336;22616;-80
2022/04/21 08:36:43;;;;;;;;;;;;;;;11.87;81.30;100071.79;85965;1333;23241;-80
2022/04/21 08:38:51;;;;;;;;;;;;;;;12.00;81.73;100071.89;85949;1335;23132;-79
2022/04/21 08:40:56;;;;;;;;;;;;;;;12.09;80.75;100073.52;85966;1335;22508;-80
2022/04/21 08:43:07;;;;;;;;;;;;;;;12.19;80.72;100070.58;85971;1335;22505;-80
2022/04/21 08:45:13;;;;;;;;;;;;;;;12.32;79.98;100064.88;85903;1336;22597;-74
2022/04/21 08:47:19;;;;;;;;;;;;;;;12.42;79.45;100062.13;85795;1337;22510;-74
2022/04/21 08:49:24;;;;;;;;;;;;;;;12.53;79.39;100062.77;85953;1335;23120;-74
2022/04/21 08:51:33;;;;;;;;;;;;;;;12.65;78.81;100061.09;85792;1336;22484;-75
2022/04/21 08:53:37;;;;;;;;;;;;;;;12.76;78.67;100060.35;85760;1337;23268;-80
2022/04/21 08:55:44;;;;;;;;;;;;;;;12.82;77.98;100057.94;85961;1335;22429;-74
2022/04/21 08:57:49;;;;;;;;;;;;;;;12.86;78.14;100059.14;85983;1335;23182;-74
2022/04/21 08:59:56;;;;;;;;;;;;;;;12.85;77.60;100056.54;85953;1335;23473;-74
2022/04/21 09:02:01;;;;;;;;;;;;;;;12.79;77.06;100056.52;85977;1335;23078;-75
2022/04/21 09:04:06;;;;;;;;;;;;;;;12.70;76.73;100057.54;85971;1335;23320;-79
2022/04/21 09:06:14;;;;;;;;;;;;;;;12.63;76.94;100057.00;85954;1335;23266;-79
2022/04/21 09:08:23;;;;;;;;;;;;;;;12.64;77.13;100056.05;85967;1335;22476;-78
2022/04/21 09:10:28;;;;;;;;;;;;;;;12.66;76.84;100053.37;85969;1332;23076;-78
2022/04/21 09:12:36;;;;;;;;;;;;;;;12.65;77.07;100056.35;85961;1335;23114;-74
2022/04/21 09:14:51;;;;;;;;;;;;;;;12.68;77.12;100057.50;85971;1335;22525;-74
2022/04/21 09:16:55;;;;;;;;;;;;;;;12.68;76.60;100055.68;85793;1336;22640;-74
2022/04/21 09:19:03;;;;;;;;;;;;;;;12.71;76.46;100055.20;85889;1333;23251;-77
2022/04/21 09:21:14;;;;;;;;;;;;;;;12.71;75.86;100049.40;85967;1335;23163;-77
2022/04/21 09:23:19;;;;;;;;;;;;;;;12.69;75.73;100046.55;85898;1336;22501;-75
2022/04/21 09:25:24;;;;;;;;;;;;;;;12.69;75.78;100045.33;85899;1332;23362;-75
2022/04/21 09:27:39;;;;;;;;;;;;;;;12.70;76.02;100044.55;85796;1335;22494;-75
2022/04/21 09:29:46;;;;;;;;;;;;;;;12.71;75.86;100044.34;85979;1332;23157;-74
2022/04/21 09:31:57;;;;;;;;;;;;;;;12.71;75.86;100043.46;85912;1336;22494;-75
2022/04/21 09:34:07;;;;;;;;;;;;;;;12.70;75.74;100043.52;85956;1335;23128;-76
2022/04/21 09:36:32;;;;;;;;;;;;;;;12.69;75.50;100042.02;85891;1335;22489;-76
2022/04/21 09:38:40;;;;;;;;;;;;;;;12.66;75.80;100041.63;85972;1332;23128;-77
2022/04/21 09:40:47;;;;;;;;;;;;;;;12.70;76.05;100039.31;85903;1336;22491;-77
2022/04/21 09:42:58;;;;;;;;;;;;;;;12.77;76.53;100041.77;85910;1334;23164;-76
2022/04/21 09:47:30;;;;;;;;;;;;;;;12.83;75.72;100035.67;85882;1334;23186;-75
2022/04/21 09:49:36;;;;;;;;;;;;;;;12.87;75.87;100033.86;85908;1334;22449;-75
2022/04/21 09:51:41;;;;;;;;;;;;;;;12.92;75.57;100034.30;85978;1332;22419;-74
2022/04/21 09:53:53;;;;;;;;;;;;;;;12.96;75.26;100036.02;85807;1335;23070;-77
2022/04/21 09:56:17;;;;;;;;;;;;;;;12.96;75.11;100033.05;85946;1332;23149;-78
2022/04/21 09:58:45;;;;;;;;;;;;;;;12.97;74.75;100031.74;85894;1336;23154;-74
2022/04/21 10:04:01;;;;;;;;;;;;;;;12.87;74.07;100033.31;85904;1332;22475;-75
2022/04/21 10:06:08;;;;;;;;;;;;;;;12.83;73.97;100035.47;85958;1332;22583;-76
2022/04/21 10:08:18;;;;;;;;;;;;;;;12.79;74.21;100030.95;85787;1335;22505;-73
2022/04/21 10:10:30;;;;;;;;;;;;;;;12.81;74.66;100031.21;85962;1335;23105;-78
2022/04/21 10:12:34;;;;;;;;;;;;;;;12.83;74.59;100032.69;85943;1333;23161;-78
2022/04/21 10:14:39;;;;;;;;;;;;;;;12.81;74.50;100031.23;85911;1333;22886;-74
2022/04/21 10:16:44;;;;;;;;;;;;;;;12.80;74.43;100033.16;85897;1335;23194;-74
2022/04/21 10:18:50;;;;;;;;;;;;;;;12.80;74.20;100028.48;85915;1332;23280;-75
2022/04/21 10:20:57;;;;;;;;;;;;;;;12.79;74.36;100027.09;85903;1333;23244;-75
2022/04/21 10:23:05;;;;;;;;;;;;;;;12.83;74.53;100025.17;85977;1334;22493;-75
2022/04/21 10:25:12;;;;;;;;;;;;;;;12.89;74.79;100036.58;85967;1335;23389;-77
2022/04/21 10:27:37;;;;;;;;;;;;;;;12.94;74.02;100041.03;85957;1332;23288;-77
2022/04/21 10:29:50;;;;;;;;;;;;;;;12.94;73.82;100040.00;85910;1336;22523;-74
2022/04/21 10:31:57;;;;;;;;;;;;;;;12.92;73.46;100038.35;85958;1335;23140;-74
2022/04/21 10:34:03;;;;;;;;;;;;;;;12.93;73.81;100036.05;85967;1335;22550;-78
2022/04/21 10:36:11;;;;;;;;;;;;;;;12.96;73.85;100037.95;85957;1332;23128;-82
2022/04/21 10:38:25;;;;;;;;;;;;;;;12.97;73.64;100034.74;85963;1332;23170;-74
2022/04/21 10:40:31;;;;;;;;;;;;;;;12.99;73.79;100037.23;85950;1335;22532;-75
2022/04/21 10:42:58;;;;;;;;;;;;;;;13.02;73.76;100039.89;85975;1327;22522;-74
2022/04/21 10:45:13;;;;;;;;;;;;;;;13.02;73.16;100042.19;85977;1331;22530;-80
2022/04/21 10:47:32;;;;;;;;;;;;;;;13.01;73.19;100038.77;85895;1332;23288;-80
2022/04/21 10:49:55;;;;;;;;;;;;;;;13.02;72.96;100039.59;85962;1332;23143;-75
2022/04/21 10:57:41;;;;;;;;;;;;;;;13.39;73.42;100041.06;85917;1332;23341;-74
2022/04/21 11:00:04;;;;;;;;;;;;;;;13.53;72.87;100039.08;85895;1332;22509;-74
2022/04/21 11:02:14;;;;;;;;;;;;;;;13.67;72.48;100039.54;85899;1336;23234;-74
2022/04/21 11:04:20;;;;;;;;;;;;;;;13.79;71.61;100039.59;85778;1334;23061;-78
2022/04/21 11:06:25;;;;;;;;;;;;;;;13.84;71.12;100035.95;85973;1332;22493;-78
2022/04/21 11:08:30;;;;;;;;;;;;;;;13.89;70.89;100035.31;85787;1335;23255;-78
2022/04/21 11:10:43;;;;;;;;;;;;;;;13.92;70.05;100035.85;85959;1332;22462;-79
2022/04/21 11:12:50;;;;;;;;;;;;;;;13.89;69.56;100033.00;85910;1330;23186;-79
2022/04/21 11:14:55;;;;;;;;;;;;;;;13.90;69.61;100036.63;85972;1332;23322;-75
2022/04/21 11:17:00;;;;;;;;;;;;;;;13.92;69.12;100037.92;85901;1333;23109;-75
2022/04/21 11:19:31;;;;;;;;;;;;;;;13.92;69.38;100032.52;85794;1335;22506;-75
2022/04/21 11:21:52;;;;;;;;;;;;;;;13.99;69.41;100035.60;85713;1334;23254;-75
2022/04/21 11:24:03;;;;;;;;;;;;;;;14.07;69.25;100038.52;85906;1333;23132;-74
2022/04/21 11:26:08;;;;;;;;;;;;;;;14.13;69.04;100036.04;85967;1327;22460;-74
2022/04/21 11:28:14;;;;;;;;;;;;;;;14.18;68.45;100036.44;85890;1332;22629;-76
2022/04/21 11:30:19;;;;;;;;;;;;;;;14.20;67.94;100036.50;85942;1333;23193;-77
2022/04/21 11:32:25;;;;;;;;;;;;;;;14.21;67.86;100030.66;85962;1335;22505;-74
2022/04/21 11:34:30;;;;;;;;;;;;;;;14.24;67.75;100032.05;85808;1338;22613;-74
2022/04/21 11:36:41;;;;;;;;;;;;;;;14.25;67.63;100030.27;85957;1335;22603;-74
2022/04/21 11:38:48;;;;;;;;;;;;;;;14.28;67.83;100028.67;85953;1327;22583;-86
2022/04/21 11:40:56;;;;;;;;;;;;;;;14.36;67.99;100026.25;85954;1327;22514;-85
2022/04/21 11:43:03;;;;;;;;;;;;;;;14.43;67.77;100024.57;85944;1335;23139;-85